| Date | Time | Temp. (oF) | Dew Point (oF) | Rel. Hum. (%) | Press. (in.) | Wind Dir. | Wind Speed (mph) | Hourly Rainfall (in.) |
|
|---|---|---|---|---|---|---|---|---|---|
| 1 | 05/12 | 00:00 | 45 | 43 | 96 | 30.18 | SSE | 6 | 0.00 |
| 2 | 05/11 | 23:00 | 46 | 45 | 97 | 30.20 | SSW | 4 | 0.02 |
| 3 | 05/11 | 22:00 | 46 | 45 | 97 | 30.23 | S | 3 | 0.01 |
| 4 | 05/11 | 21:00 | 46 | 45 | 97 | 30.25 | SE | 5 | 0.00 |
| 5 | 05/11 | 20:00 | 46 | 44 | 96 | 30.26 | E | 5 | 0.01 |
| 6 | 05/11 | 19:00 | 45 | 43 | 94 | 30.28 | SE | 1 | 0.02 |
| 7 | 05/11 | 18:00 | 46 | 44 | 93 | 30.31 | SE | 4 | 0.00 |
| 8 | 05/11 | 17:00 | 46 | 43 | 91 | 30.33 | SE | 2 | 0.04 |
| 9 | 05/11 | 16:00 | 47 | 42 | 84 | 30.36 | SSW | 4 | 0.03 |
| 10 | 05/11 | 15:00 | 49 | 42 | 77 | 30.40 | S | 5 | 0.02 |
| 11 | 05/11 | 14:00 | 50 | 37 | 62 | 30.41 | SSW | 10 | 0.00 |
| 12 | 05/11 | 13:00 | 55 | 30 | 40 | 30.42 | SSW | 5 | 0.00 |
| 13 | 05/11 | 12:00 | 55 | 30 | 40 | 30.41 | ESE | 7 | 0.00 |
| 14 | 05/11 | 11:00 | 55 | 30 | 40 | 30.41 | S | 9 | 0.00 |
| 15 | 05/11 | 10:00 | 55 | 33 | 44 | 30.42 | S | 2 | 0.00 |
| 16 | 05/11 | 09:00 | 51 | 36 | 58 | 30.43 | SSE | 3 | 0.00 |
| 17 | 05/11 | 08:00 | 43 | 41 | 94 | 30.45 | E | 0 | 0.00 |
| 18 | 05/11 | 07:00 | 38 | 37 | 97 | 30.44 | SSE | 1 | 0.00 |
| 19 | 05/11 | 06:00 | 35 | 33 | 94 | 30.43 | SE | 0 | 0.00 |
| 20 | 05/11 | 05:00 | 36 | 34 | 93 | 30.43 | ESE | 0 | 0.00 |
| 21 | 05/11 | 04:00 | 37 | 34 | 90 | 30.42 | NE | 1 | 0.00 |
| 22 | 05/11 | 03:00 | 38 | 35 | 89 | 30.41 | NNE | 0 | 0.00 |
| 23 | 05/11 | 02:00 | 39 | 34 | 83 | 30.41 | SSE | 0 | 0.00 |
| 24 | 05/11 | 01:00 | 41 | 33 | 75 | 30.40 | NE | 0 | 0.00 |